Time;durP1;ratioP1;P1;durP2;ratioP2;P2;SDS_P1;SDS_P2;PMS_P1;PMS_P2;Temp;Humidity;BMP_temperature;BMP_pressure;BME280_temperature;BME280_humidity;BME280_pressure;Samples;Min_cycle;Max_cycle;Signal;HPM_P1;HPM_P2
2021/09/12 00:00:35;;;;;;;15.40;12.73;;;17.70;99.90;;;;;;4996001;28;20177;-85
2021/09/12 00:03:01;;;;;;;18.50;14.90;;;17.80;99.90;;;;;;4995191;28;20472;-88
2021/09/12 00:05:27;;;;;;;16.00;13.03;;;17.80;99.90;;;;;;4995491;28;20689;-91
2021/09/12 00:07:52;;;;;;;15.27;12.90;;;17.80;99.90;;;;;;4996489;28;20713;-90
2021/09/12 00:10:18;;;;;;;19.10;12.67;;;17.70;99.90;;;;;;4996459;28;20505;-90
2021/09/12 00:12:44;;;;;;;20.93;13.77;;;17.70;99.90;;;;;;4996389;28;20258;-92
2021/09/12 00:15:11;;;;;;;19.27;13.70;;;17.70;99.90;;;;;;4994952;28;20168;-90
2021/09/12 00:17:40;;;;;;;15.50;13.47;;;17.70;99.90;;;;;;5011821;28;20571;-90
2021/09/12 00:20:06;;;;;;;17.33;14.67;;;17.70;99.90;;;;;;4995238;28;20474;-83
2021/09/12 00:22:33;;;;;;;16.40;14.60;;;17.70;99.90;;;;;;4996341;28;20452;-80
2021/09/12 00:24:59;;;;;;;17.43;14.80;;;17.70;99.90;;;;;;4996355;28;20448;-84
2021/09/12 00:27:24;;;;;;;20.33;13.43;;;17.70;99.90;;;;;;4996242;28;20507;-91
2021/09/12 00:29:50;;;;;;;16.53;13.50;;;17.70;99.90;;;;;;4996146;28;20540;-87
2021/09/12 00:32:15;;;;;;;18.73;14.93;;;17.70;99.90;;;;;;4996383;28;20245;-81
2021/09/12 00:34:44;;;;;;;16.27;14.07;;;17.60;99.90;;;;;;4995978;28;20195;-88
2021/09/12 00:37:10;;;;;;;19.87;13.40;;;17.60;99.90;;;;;;4996151;28;20255;-91
2021/09/12 00:39:35;;;;;;;16.23;13.90;;;17.60;99.90;;;;;;4996328;28;20471;-91
2021/09/12 00:42:01;;;;;;;19.53;13.63;;;17.70;99.90;;;;;;4994849;28;20186;-82
2021/09/12 00:44:26;;;;;;;16.60;14.10;;;17.70;99.90;;;;;;4995552;28;20207;-91
2021/09/12 00:46:53;;;;;;;17.40;13.53;;;17.70;99.90;;;;;;4995496;28;20219;-86
2021/09/12 00:49:19;;;;;;;16.90;13.60;;;17.70;99.90;;;;;;4994817;28;20182;-91
2021/09/12 00:51:45;;;;;;;16.97;14.57;;;17.70;99.90;;;;;;4995924;28;20411;-81
2021/09/12 00:54:12;;;;;;;18.53;13.77;;;17.70;99.90;;;;;;4995726;28;21065;-90
2021/09/12 00:56:40;;;;;;;22.50;15.10;;;17.60;99.90;;;;;;4995851;28;20245;-85
2021/09/12 00:59:10;;;;;;;20.70;16.13;;;17.60;99.90;;;;;;4995064;28;20432;-90
2021/09/12 01:01:38;;;;;;;18.20;14.20;;;17.60;99.90;;;;;;4995318;28;20432;-91
2021/09/12 01:04:04;;;;;;;18.47;15.63;;;17.60;99.90;;;;;;4995456;28;20551;-90
2021/09/12 01:06:31;;;;;;;20.50;16.00;;;17.60;99.90;;;;;;4997218;28;20548;-81
2021/09/12 01:08:57;;;;;;;18.67;15.60;;;17.50;99.90;;;;;;5014730;28;20200;-90
2021/09/12 01:11:22;;;;;;;21.33;17.40;;;17.50;99.90;;;;;;5014718;28;20428;-90
2021/09/12 01:13:48;;;;;;;20.87;17.20;;;17.50;99.90;;;;;;5013174;28;20418;-81
2021/09/12 01:16:21;;;;;;;23.93;15.97;;;17.40;99.90;;;;;;5014763;28;20675;-80
2021/09/12 01:18:47;;;;;;;19.83;16.97;;;17.50;99.90;;;;;;5013526;28;20180;-89
2021/09/12 01:21:21;;;;;;;22.67;17.30;;;17.50;99.90;;;;;;5014354;28;20450;-90
2021/09/12 01:23:49;;;;;;;22.77;17.80;;;17.50;99.90;;;;;;5014759;28;20494;-80
2021/09/12 01:26:22;;;;;;;24.70;16.70;;;17.50;99.90;;;;;;5009628;28;20944;-91
2021/09/12 01:28:49;;;;;;;22.40;18.03;;;17.40;99.90;;;;;;4989802;28;20427;-90
2021/09/12 01:31:25;;;;;;;20.33;16.90;;;17.40;99.90;;;;;;5012898;28;20908;-80
2021/09/12 01:33:50;;;;;;;23.63;19.80;;;17.40;99.90;;;;;;4995282;28;20441;-90
2021/09/12 01:36:17;;;;;;;28.00;19.40;;;17.40;99.90;;;;;;4994957;28;20431;-91
2021/09/12 01:38:44;;;;;;;22.00;18.23;;;17.40;99.90;;;;;;5010144;28;20445;-90
2021/09/12 01:41:10;;;;;;;28.27;18.70;;;17.30;99.90;;;;;;4994849;28;20417;-84
2021/09/12 01:43:52;;;;;;;21.90;17.43;;;17.30;99.90;;;;;;4994868;28;20441;-91
2021/09/12 01:46:18;;;;;;;26.87;19.07;;;17.30;99.90;;;;;;4994480;28;20510;-91
2021/09/12 01:48:44;;;;;;;23.47;18.63;;;17.30;99.90;;;;;;4994689;28;20428;-82
2021/09/12 01:51:10;;;;;;;22.53;20.03;;;17.30;99.90;;;;;;4993476;28;20523;-79
2021/09/12 01:53:36;;;;;;;24.97;20.40;;;17.30;99.90;;;;;;4994765;28;20187;-86
2021/09/12 01:56:02;;;;;;;23.27;18.30;;;17.30;99.90;;;;;;4993928;28;20422;-88
2021/09/12 01:58:28;;;;;;;23.83;18.67;;;17.30;99.90;;;;;;4993938;28;20478;-88
2021/09/12 02:00:54;;;;;;;23.77;17.93;;;17.30;99.90;;;;;;4993671;28;20993;-80
2021/09/12 02:03:20;;;;;;;29.70;22.30;;;17.30;99.90;;;;;;4993811;28;20228;-89
2021/09/12 02:05:45;;;;;;;24.30;18.67;;;17.40;99.90;;;;;;4994145;28;20896;-88
2021/09/12 02:08:11;;;;;;;24.00;19.70;;;17.40;99.90;;;;;;4994100;28;20529;-90
2021/09/12 02:10:37;;;;;;;20.50;17.57;;;17.40;99.90;;;;;;4993914;28;20201;-83
2021/09/12 02:13:02;;;;;;;25.90;18.63;;;17.40;99.90;;;;;;4992679;28;20206;-82
2021/09/12 02:15:28;;;;;;;21.10;17.60;;;17.40;99.90;;;;;;4992388;28;20237;-90
2021/09/12 02:17:54;;;;;;;20.80;17.90;;;17.40;99.90;;;;;;4994032;28;20241;-84
2021/09/12 02:20:19;;;;;;;22.77;17.43;;;17.40;99.90;;;;;;4993809;28;20576;-81
2021/09/12 02:22:45;;;;;;;19.87;17.73;;;17.40;99.90;;;;;;4993767;28;20168;-89
2021/09/12 02:25:11;;;;;;;22.87;18.83;;;17.40;99.90;;;;;;4993396;28;20178;-89
2021/09/12 02:27:36;;;;;;;19.80;17.70;;;17.40;99.90;;;;;;4993429;28;20306;-90
2021/09/12 02:30:04;;;;;;;21.47;16.57;;;17.40;99.90;;;;;;4992060;28;20184;-80
2021/09/12 02:32:29;;;;;;;22.63;18.60;;;17.40;99.90;;;;;;4993518;28;20321;-80
2021/09/12 02:34:55;;;;;;;22.93;19.43;;;17.40;99.90;;;;;;4993468;28;20517;-81
2021/09/12 02:37:20;;;;;;;23.67;18.83;;;17.40;99.90;;;;;;4993615;28;20522;-81
2021/09/12 02:39:46;;;;;;;23.63;18.13;;;17.40;99.90;;;;;;4993506;28;20646;-87
2021/09/12 02:42:14;;;;;;;24.23;18.90;;;17.40;99.90;;;;;;4993497;28;20192;-80
2021/09/12 02:44:40;;;;;;;20.87;18.50;;;17.50;99.90;;;;;;4993116;28;20595;-83
2021/09/12 02:47:07;;;;;;;23.47;18.67;;;17.40;99.90;;;;;;4993605;28;20474;-83
2021/09/12 02:49:32;;;;;;;24.90;17.90;;;17.50;99.90;;;;;;4992492;28;20181;-81
2021/09/12 02:51:58;;;;;;;24.50;19.03;;;17.40;99.90;;;;;;4993764;28;20424;-91
2021/09/12 02:54:23;;;;;;;21.53;16.43;;;17.40;99.90;;;;;;4993641;28;20214;-88
2021/09/12 02:56:49;;;;;;;21.47;18.80;;;17.40;99.90;;;;;;4992394;28;20185;-89
2021/09/12 02:59:14;;;;;;;21.83;18.27;;;17.40;99.90;;;;;;4991720;28;20176;-87
2021/09/12 03:01:40;;;;;;;23.23;18.50;;;17.40;99.90;;;;;;4993530;28;20209;-80
2021/09/12 03:04:06;;;;;;;20.93;17.10;;;17.50;99.90;;;;;;4992934;28;20714;-88
2021/09/12 03:06:31;;;;;;;23.70;17.20;;;17.40;99.90;;;;;;4992912;28;20580;-87
2021/09/12 03:08:57;;;;;;;21.80;19.37;;;17.50;99.90;;;;;;4992965;28;20191;-85
2021/09/12 03:11:22;;;;;;;24.80;18.23;;;17.40;99.90;;;;;;4993023;28;20182;-81
2021/09/12 03:13:48;;;;;;;24.77;17.90;;;17.40;99.90;;;;;;4992614;28;20227;-80
2021/09/12 03:16:14;;;;;;;20.90;17.83;;;17.40;99.90;;;;;;4993045;28;20186;-85
2021/09/12 03:18:40;;;;;;;21.30;17.60;;;17.40;99.90;;;;;;4992876;28;20497;-80
2021/09/12 03:21:05;;;;;;;23.03;18.90;;;17.40;99.90;;;;;;5007304;28;20256;-82
2021/09/12 03:23:31;;;;;;;21.10;17.90;;;17.30;99.90;;;;;;4992698;28;20179;-83
2021/09/12 03:25:57;;;;;;;19.97;17.97;;;17.30;99.90;;;;;;4992264;28;20189;-81
2021/09/12 03:28:22;;;;;;;21.90;17.77;;;17.20;99.90;;;;;;4993001;28;20234;-83
2021/09/12 03:30:48;;;;;;;23.50;17.87;;;17.20;99.90;;;;;;4992741;28;20198;-87
2021/09/12 03:33:15;;;;;;;23.30;18.63;;;17.20;99.90;;;;;;4993107;28;20544;-81
2021/09/12 03:35:41;;;;;;;22.63;18.90;;;17.20;99.90;;;;;;4993133;28;20215;-82
2021/09/12 03:38:07;;;;;;;22.80;19.67;;;17.20;99.90;;;;;;4995860;28;20473;-81
2021/09/12 03:40:33;;;;;;;21.30;18.97;;;17.20;99.90;;;;;;4996645;28;20432;-80
2021/09/12 03:42:59;;;;;;;20.50;18.30;;;17.20;99.90;;;;;;4996588;28;20422;-80
2021/09/12 03:45:24;;;;;;;19.10;17.10;;;17.20;99.90;;;;;;4996153;28;20188;-83
2021/09/12 03:47:50;;;;;;;21.77;17.60;;;17.00;99.90;;;;;;4995060;28;20311;-78
2021/09/12 03:50:16;;;;;;;21.53;18.40;;;17.00;99.90;;;;;;4996286;28;20174;-80
2021/09/12 03:52:41;;;;;;;24.17;19.60;;;16.80;99.90;;;;;;4996275;28;20183;-79
2021/09/12 03:55:08;;;;;;;23.17;20.60;;;16.90;99.90;;;;;;4996251;28;20528;-81
2021/09/12 03:57:34;;;;;;;30.90;20.47;;;16.90;99.90;;;;;;4996285;28;20171;-79
2021/09/12 04:00:00;;;;;;;23.60;19.67;;;16.90;99.90;;;;;;4995774;28;20426;-80
2021/09/12 04:02:25;;;;;;;24.53;20.80;;;16.80;99.90;;;;;;4995801;28;20428;-80
2021/09/12 04:04:51;;;;;;;21.97;19.67;;;16.80;99.90;;;;;;4996005;28;20180;-79
2021/09/12 04:07:17;;;;;;;22.97;19.27;;;16.70;99.90;;;;;;4995925;28;20221;-79
2021/09/12 04:09:42;;;;;;;25.17;19.77;;;16.70;99.90;;;;;;4995929;28;20542;-79
2021/09/12 04:12:08;;;;;;;23.10;20.03;;;16.60;99.90;;;;;;4996002;28;20210;-83
2021/09/12 04:14:33;;;;;;;26.47;21.50;;;16.50;99.90;;;;;;4995494;28;20575;-80
2021/09/12 04:16:59;;;;;;;27.07;20.80;;;16.50;99.90;;;;;;4995916;28;20186;-81
2021/09/12 04:19:24;;;;;;;24.57;20.73;;;16.50;99.90;;;;;;4995715;28;20175;-79
2021/09/12 04:21:50;;;;;;;24.70;20.60;;;16.50;99.90;;;;;;4995771;28;20186;-80
2021/09/12 04:24:16;;;;;;;26.23;20.30;;;16.50;99.90;;;;;;4995668;28;20252;-79
2021/09/12 04:26:41;;;;;;;28.30;20.80;;;16.50;99.90;;;;;;4995625;28;20205;-80
2021/09/12 04:29:07;;;;;;;23.43;19.13;;;16.40;99.90;;;;;;4995289;28;20528;-80
2021/09/12 04:31:32;;;;;;;30.77;21.27;;;16.40;99.90;;;;;;4995585;28;20178;-79
2021/09/12 04:33:58;;;;;;;23.50;20.23;;;16.30;99.90;;;;;;4995552;28;20187;-80
2021/09/12 04:36:24;;;;;;;24.97;20.40;;;16.30;99.90;;;;;;4995590;28;20257;-79
2021/09/12 04:38:49;;;;;;;24.90;21.93;;;16.30;99.90;;;;;;4995424;28;20178;-81
2021/09/12 04:41:15;;;;;;;28.43;21.03;;;16.40;99.90;;;;;;4995497;28;20183;-80
2021/09/12 04:43:41;;;;;;;25.80;20.63;;;16.40;99.90;;;;;;4994974;28;20638;-80
2021/09/12 04:46:06;;;;;;;25.00;21.13;;;16.50;99.90;;;;;;4995162;28;20177;-80
2021/09/12 04:48:32;;;;;;;23.00;19.63;;;16.40;99.90;;;;;;4994829;28;20181;-80
2021/09/12 04:50:57;;;;;;;24.67;20.53;;;16.40;99.90;;;;;;4995212;28;20253;-81
2021/09/12 04:53:23;;;;;;;23.37;19.90;;;16.50;99.90;;;;;;4995169;28;20223;-81
2021/09/12 04:55:49;;;;;;;23.53;21.03;;;16.50;99.90;;;;;;4995158;28;20571;-81
2021/09/12 04:58:14;;;;;;;24.33;20.27;;;16.50;99.90;;;;;;4994727;28;20187;-83
2021/09/12 05:00:40;;;;;;;23.20;19.53;;;16.50;99.90;;;;;;4995133;28;20214;-85
2021/09/12 05:03:06;;;;;;;25.03;20.83;;;16.50;99.90;;;;;;4995046;28;20219;-80
2021/09/12 05:05:31;;;;;;;25.20;18.77;;;16.60;99.90;;;;;;4992198;28;20193;-79
2021/09/12 05:07:57;;;;;;;23.53;18.33;;;16.50;99.90;;;;;;4984883;28;20219;-81
2021/09/12 05:10:23;;;;;;;27.23;20.70;;;16.50;99.90;;;;;;4992669;28;20181;-82
2021/09/12 05:12:49;;;;;;;24.83;20.00;;;16.60;99.90;;;;;;4994687;28;20197;-89
2021/09/12 05:15:17;;;;;;;23.77;20.70;;;16.70;99.90;;;;;;4975482;28;20413;-89
2021/09/12 05:17:43;;;;;;;25.53;19.37;;;16.60;99.90;;;;;;4975867;28;20182;-86
2021/09/12 05:20:09;;;;;;;24.67;21.40;;;16.60;99.90;;;;;;4978923;28;20433;-91
2021/09/12 05:22:35;;;;;;;23.07;18.80;;;16.60;99.90;;;;;;4986428;28;20269;-88
2021/09/12 05:25:01;;;;;;;24.07;20.03;;;16.70;99.90;;;;;;4987604;28;20459;-83
2021/09/12 05:27:27;;;;;;;25.70;19.70;;;16.60;99.90;;;;;;4991628;28;20556;-89
2021/09/12 05:29:53;;;;;;;26.07;21.17;;;16.60;99.90;;;;;;4993652;28;20460;-81
2021/09/12 05:32:18;;;;;;;25.97;20.90;;;16.70;99.90;;;;;;4993931;28;20258;-82
2021/09/12 05:34:44;;;;;;;25.17;19.90;;;16.70;99.90;;;;;;4993847;28;20181;-81
2021/09/12 05:37:10;;;;;;;22.53;19.33;;;16.80;99.90;;;;;;4993846;28;20180;-81
2021/09/12 05:39:36;;;;;;;30.70;20.47;;;16.80;99.90;;;;;;4993634;28;20181;-81
2021/09/12 05:42:02;;;;;;;24.07;21.33;;;16.80;99.90;;;;;;4993853;28;20421;-82
2021/09/12 05:44:28;;;;;;;22.50;20.10;;;16.90;99.90;;;;;;4993355;28;20416;-81
2021/09/12 05:46:54;;;;;;;23.10;19.00;;;16.90;99.90;;;;;;4993660;28;20967;-80
2021/09/12 05:49:19;;;;;;;25.93;20.33;;;16.90;99.90;;;;;;4984987;28;20186;-81
2021/09/12 05:51:46;;;;;;;26.30;21.53;;;16.90;99.90;;;;;;4982824;28;20190;-82
2021/09/12 05:54:12;;;;;;;26.57;22.07;;;16.90;99.90;;;;;;4979427;28;20544;-81
2021/09/12 05:56:37;;;;;;;26.80;22.30;;;17.00;99.90;;;;;;4985227;28;20432;-80
2021/09/12 05:59:03;;;;;;;24.97;22.00;;;17.00;99.90;;;;;;4992756;28;20521;-80
2021/09/12 06:01:30;;;;;;;25.43;20.73;;;17.00;99.90;;;;;;4992004;28;20177;-80
2021/09/12 06:03:55;;;;;;;27.57;22.10;;;17.10;99.90;;;;;;4992918;28;20506;-80
2021/09/12 06:06:21;;;;;;;24.20;21.17;;;17.10;99.90;;;;;;4993207;28;20854;-81
2021/09/12 06:08:46;;;;;;;27.57;21.20;;;17.20;99.90;;;;;;4993080;28;20632;-80
2021/09/12 06:11:12;;;;;;;28.63;21.97;;;17.30;99.90;;;;;;4993255;28;20186;-80
2021/09/12 06:13:38;;;;;;;24.10;21.50;;;17.30;99.90;;;;;;4992816;28;20274;-81
2021/09/12 06:16:05;;;;;;;25.90;20.77;;;17.30;99.90;;;;;;4991927;28;20233;-80
2021/09/12 06:18:31;;;;;;;23.20;20.70;;;17.40;99.90;;;;;;4993168;28;20420;-80
2021/09/12 06:21:00;;;;;;;28.67;21.57;;;17.50;99.90;;;;;;4992916;28;20484;-80
2021/09/12 06:23:26;;;;;;;25.17;22.43;;;17.50;99.90;;;;;;4993075;28;20232;-80
2021/09/12 06:25:54;;;;;;;23.33;20.33;;;17.60;99.90;;;;;;4993042;28;20453;-79
2021/09/12 06:28:20;;;;;;;25.63;20.63;;;17.60;99.90;;;;;;4992563;28;20200;-80
2021/09/12 06:30:46;;;;;;;25.50;21.30;;;17.60;99.90;;;;;;4993053;28;20415;-80
2021/09/12 06:33:11;;;;;;;25.90;21.27;;;17.70;99.90;;;;;;4991578;28;20280;-80
2021/09/12 06:35:37;;;;;;;24.53;21.33;;;17.70;99.90;;;;;;4992817;28;20280;-80
2021/09/12 06:38:02;;;;;;;25.10;19.60;;;17.70;99.90;;;;;;4992992;28;20165;-79
2021/09/12 06:40:31;;;;;;;28.27;23.20;;;17.70;99.90;;;;;;4992958;28;20257;-80
2021/09/12 06:43:01;;;;;;;25.40;20.40;;;17.70;99.90;;;;;;4992567;28;20230;-79
2021/09/12 06:45:30;;;;;;;27.20;22.43;;;17.80;99.90;;;;;;4993005;28;20444;-80
2021/09/12 06:47:57;;;;;;;27.73;23.03;;;17.90;99.90;;;;;;4992846;28;20579;-80
2021/09/12 06:50:24;;;;;;;26.10;19.80;;;17.90;99.90;;;;;;5000396;28;20516;-79
2021/09/12 06:52:50;;;;;;;23.57;21.07;;;17.90;99.90;;;;;;4994907;28;20422;-82
2021/09/12 06:55:16;;;;;;;28.60;20.97;;;18.10;99.90;;;;;;4994192;28;20420;-80
2021/09/12 06:57:42;;;;;;;23.67;20.27;;;18.10;99.90;;;;;;4994392;28;20412;-80
2021/09/12 07:00:09;;;;;;;26.10;19.77;;;18.30;99.90;;;;;;4988099;28;20430;-80
2021/09/12 07:02:39;;;;;;;22.80;19.80;;;18.40;99.90;;;;;;4983042;28;21048;-80
2021/09/12 07:05:06;;;;;;;23.50;17.77;;;18.30;99.90;;;;;;4993318;28;20796;-82
2021/09/12 07:07:32;;;;;;;23.47;20.43;;;18.30;99.90;;;;;;4993100;28;20801;-80
2021/09/12 07:09:58;;;;;;;21.23;19.00;;;18.30;99.90;;;;;;4992877;28;20426;-82
2021/09/12 07:12:24;;;;;;;23.20;17.87;;;18.40;99.90;;;;;;4994984;28;20196;-81
2021/09/12 07:14:49;;;;;;;24.60;21.13;;;18.50;99.90;;;;;;4996727;28;20264;-81
2021/09/12 07:17:15;;;;;;;21.90;19.47;;;18.50;99.90;;;;;;4995801;28;20185;-81
2021/09/12 07:19:40;;;;;;;26.50;18.63;;;18.50;99.90;;;;;;4995740;28;20690;-83
2021/09/12 07:22:06;;;;;;;24.30;20.80;;;18.50;99.90;;;;;;4996969;28;20179;-80
2021/09/12 07:24:32;;;;;;;21.87;19.53;;;18.60;99.90;;;;;;4996968;28;20213;-81
2021/09/12 07:26:58;;;;;;;21.90;19.40;;;18.70;99.90;;;;;;4996598;28;20297;-85
2021/09/12 07:29:27;;;;;;;23.10;18.43;;;18.80;99.90;;;;;;4996420;28;21004;-81
2021/09/12 07:31:54;;;;;;;21.03;18.43;;;18.80;99.90;;;;;;4996598;28;20198;-80
2021/09/12 07:34:20;;;;;;;22.13;19.13;;;18.70;99.90;;;;;;4996478;28;20461;-81
2021/09/12 07:36:45;;;;;;;20.73;18.50;;;18.60;99.90;;;;;;4996739;28;20430;-80
2021/09/12 07:39:11;;;;;;;25.07;19.90;;;18.60;99.90;;;;;;4996602;28;20229;-81
2021/09/12 07:41:39;;;;;;;21.40;19.20;;;18.70;99.90;;;;;;4995191;28;20274;-81
2021/09/12 07:44:05;;;;;;;22.93;20.07;;;18.80;99.90;;;;;;4996278;28;20250;-83
2021/09/12 07:46:31;;;;;;;25.33;20.10;;;18.90;99.90;;;;;;4995200;28;20572;-79
2021/09/12 07:48:57;;;;;;;21.67;19.17;;;18.80;99.90;;;;;;4996327;28;20170;-80
2021/09/12 07:51:22;;;;;;;24.30;18.80;;;18.80;99.90;;;;;;4996359;28;20184;-80
2021/09/12 07:53:48;;;;;;;21.73;19.27;;;18.90;99.90;;;;;;4995033;28;20418;-81
2021/09/12 07:56:14;;;;;;;24.00;18.30;;;19.00;99.90;;;;;;4996266;28;20178;-81
2021/09/12 07:58:39;;;;;;;20.03;17.90;;;19.10;99.90;;;;;;4995764;28;20726;-80
2021/09/12 08:01:05;;;;;;;19.47;17.23;;;19.20;99.90;;;;;;4996083;28;20182;-80
2021/09/12 08:03:30;;;;;;;22.77;19.73;;;19.30;99.90;;;;;;4995825;28;20297;-80
2021/09/12 08:05:56;;;;;;;20.63;18.13;;;19.40;99.90;;;;;;5011121;28;20213;-80
2021/09/12 08:08:23;;;;;;;17.57;15.77;;;19.50;99.90;;;;;;4995930;28;20222;-80
2021/09/12 08:10:49;;;;;;;18.60;16.70;;;19.60;99.90;;;;;;4995887;28;20181;-79
2021/09/12 08:13:14;;;;;;;20.80;15.63;;;19.40;99.90;;;;;;4995550;28;20533;-80
2021/09/12 08:15:40;;;;;;;19.63;17.33;;;19.30;99.90;;;;;;4994645;28;20187;-80
2021/09/12 08:18:06;;;;;;;17.97;15.90;;;19.20;99.90;;;;;;4995876;28;20403;-80
2021/09/12 08:20:32;;;;;;;19.00;16.33;;;19.10;99.90;;;;;;4995580;28;20182;-80
2021/09/12 08:22:58;;;;;;;19.23;17.10;;;19.20;99.90;;;;;;4994398;28;20530;-80
2021/09/12 08:25:25;;;;;;;19.10;17.10;;;19.30;99.90;;;;;;4995349;28;20229;-80
2021/09/12 08:27:50;;;;;;;17.97;16.10;;;19.70;99.90;;;;;;4994723;28;20975;-81
2021/09/12 08:30:19;;;;;;;19.50;17.40;;;19.80;99.90;;;;;;4995557;28;20410;-80
2021/09/12 08:32:45;;;;;;;19.30;16.97;;;19.90;99.90;;;;;;4995245;28;20175;-81
2021/09/12 08:35:11;;;;;;;20.43;17.00;;;19.70;99.90;;;;;;4994934;28;20442;-80
2021/09/12 08:37:37;;;;;;;20.90;18.83;;;19.60;99.90;;;;;;4997037;28;20179;-79
2021/09/12 08:40:04;;;;;;;18.73;16.83;;;19.40;99.90;;;;;;5006316;28;20461;-79
2021/09/12 08:42:31;;;;;;;21.67;19.07;;;19.30;99.90;;;;;;5013163;28;20931;-81
2021/09/12 08:44:58;;;;;;;19.87;17.60;;;19.20;99.90;;;;;;5013055;28;20430;-80
2021/09/12 08:47:24;;;;;;;20.53;18.30;;;19.20;99.90;;;;;;5014526;28;20477;-80
2021/09/12 08:49:49;;;;;;;20.73;18.20;;;19.20;99.90;;;;;;5014787;28;20405;-81
2021/09/12 08:52:15;;;;;;;23.53;18.70;;;19.30;99.90;;;;;;5014917;28;20418;-80
2021/09/12 08:54:42;;;;;;;21.37;18.70;;;19.50;99.90;;;;;;5014506;28;20713;-81
2021/09/12 08:57:07;;;;;;;19.27;17.40;;;19.50;99.90;;;;;;5014439;28;20534;-81
2021/09/12 08:59:35;;;;;;;17.83;15.93;;;19.50;99.90;;;;;;5014030;28;20417;-80
2021/09/12 09:02:02;;;;;;;16.83;15.13;;;19.50;99.90;;;;;;5014345;28;20254;-80
2021/09/12 09:04:30;;;;;;;16.30;14.57;;;19.40;99.90;;;;;;5007063;28;20458;-82
2021/09/12 09:07:07;;;;;;;14.53;12.53;;;19.60;99.90;;;;;;4994234;28;20564;-80
2021/09/12 09:09:51;;;;;;;15.80;12.17;;;19.60;99.90;;;;;;4975388;28;20430;-80
2021/09/12 09:12:31;;;;;;;17.43;13.93;;;19.50;99.90;;;;;;4974207;28;20418;-83
2021/09/12 09:15:10;;;;;;;19.40;13.93;;;19.40;99.90;;;;;;4974817;28;20428;-80
2021/09/12 09:17:38;;;;;;;16.40;14.70;;;19.50;99.90;;;;;;4975058;28;20412;-80
2021/09/12 09:20:06;;;;;;;19.47;13.63;;;20.20;99.90;;;;;;4975018;28;20446;-85
2021/09/12 09:22:34;;;;;;;15.83;12.77;;;24.00;99.90;;;;;;4973672;28;20515;-81
2021/09/12 09:25:08;;;;;;;12.37;10.50;;;25.40;99.90;;;;;;4979668;28;20429;-81
2021/09/12 09:27:52;;;;;;;11.60;10.40;;;26.20;99.90;;;;;;4981722;28;20841;-80
2021/09/12 09:30:18;;;;;;;12.20;9.57;;;26.80;99.90;;;;;;4974480;28;20419;-81
2021/09/12 09:32:43;;;;;;;9.60;8.67;;;26.70;99.90;;;;;;4974809;28;20420;-82
2021/09/12 09:35:13;;;;;;;11.23;10.13;;;25.80;99.90;;;;;;4974800;28;20256;-81
2021/09/12 09:37:47;;;;;;;11.43;10.00;;;25.80;99.90;;;;;;4971843;28;20215;-81
2021/09/12 09:40:13;;;;;;;11.03;8.60;;;26.70;99.90;;;;;;4973510;28;20487;-81
2021/09/12 09:42:41;;;;;;;9.90;8.93;;;27.70;99.90;;;;;;4972885;28;20566;-80
2021/09/12 09:45:14;;;;;;;10.60;8.97;;;27.50;99.90;;;;;;4974287;28;20178;-82
2021/09/12 09:47:42;;;;;;;10.73;9.27;;;27.70;99.90;;;;;;4974840;28;20638;-80
2021/09/12 09:50:13;;;;;;;11.70;9.73;;;27.60;99.90;;;;;;4973481;28;20999;-82
2021/09/12 09:52:46;;;;;;;15.50;9.13;;;27.40;99.90;;;;;;4974707;28;20959;-81
2021/09/12 09:55:14;;;;;;;11.57;8.00;;;25.80;99.90;;;;;;4974672;28;20419;-81
2021/09/12 09:57:42;;;;;;;9.60;8.50;;;25.00;99.90;;;;;;4972904;28;20431;-80
2021/09/12 10:00:08;;;;;;;11.50;9.20;;;24.70;99.90;;;;;;4974414;28;20478;-84
2021/09/12 10:02:34;;;;;;;10.30;9.30;;;23.90;99.90;;;;;;4974134;28;20456;-81
2021/09/12 10:05:05;;;;;;;12.80;9.57;;;22.90;99.90;;;;;;4974367;28;20452;-81
2021/09/12 10:07:31;;;;;;;9.63;8.33;;;23.00;99.90;;;;;;4972952;28;20912;-82
2021/09/12 10:09:57;;;;;;;11.40;8.50;;;23.30;99.90;;;;;;4974232;28;20841;-83
2021/09/12 10:12:24;;;;;;;10.37;8.90;;;23.00;99.90;;;;;;4973835;28;20500;-82
2021/09/12 10:15:05;;;;;;;11.33;8.83;;;22.80;99.90;;;;;;4974243;28;20176;-83
2021/09/12 10:17:34;;;;;;;11.77;8.97;;;22.30;99.90;;;;;;4972957;28;20429;-82
2021/09/12 10:20:10;;;;;;;10.57;9.47;;;21.60;99.90;;;;;;4974220;28;20753;-82
2021/09/12 10:22:55;;;;;;;10.90;8.47;;;21.40;99.90;;;;;;4974149;28;20418;-82
2021/09/12 10:25:23;;;;;;;11.83;8.33;;;21.30;99.90;;;;;;4974177;28;20410;-81
2021/09/12 10:28:04;;;;;;;16.87;8.87;;;21.90;99.90;;;;;;4973525;28;20479;-83
2021/09/12 10:30:40;;;;;;;12.13;7.93;;;23.30;99.90;;;;;;4973902;28;20423;-81
2021/09/12 10:33:09;;;;;;;11.30;8.50;;;23.00;99.90;;;;;;4972663;28;20427;-82
2021/09/12 10:35:47;;;;;;;11.53;8.30;;;23.30;99.90;;;;;;4973995;28;20415;-81
2021/09/12 10:38:22;;;;;;;14.00;8.30;;;23.50;99.90;;;;;;4973920;28;20478;-82
2021/09/12 10:41:11;;;;;;;11.10;7.70;;;23.90;99.90;;;;;;4973947;28;20411;-81
2021/09/12 10:43:52;;;;;;;10.30;7.77;;;23.50;99.90;;;;;;4972302;28;20536;-82
2021/09/12 10:46:17;;;;;;;10.93;8.47;;;22.80;99.90;;;;;;4973900;28;20800;-83
2021/09/12 10:48:52;;;;;;;10.57;9.00;;;22.40;99.90;;;;;;4977906;28;20431;-82
2021/09/12 10:51:20;;;;;;;11.30;8.47;;;22.00;99.90;;;;;;4977877;28;20226;-82
2021/09/12 10:53:46;;;;;;;10.80;7.70;;;21.70;99.90;;;;;;4977800;28;20422;-81
2021/09/12 10:56:29;;;;;;;11.00;8.30;;;21.80;99.90;;;;;;4992493;28;20422;-83
2021/09/12 10:59:07;;;;;;;9.20;7.53;;;21.80;99.90;;;;;;4977101;28;20494;-81
2021/09/12 11:01:40;;;;;;;9.40;7.70;;;22.70;99.90;;;;;;4977579;28;20450;-83
2021/09/12 11:04:06;;;;;;;11.00;8.00;;;23.00;99.90;;;;;;4977672;28;20462;-83
2021/09/12 11:06:35;;;;;;;12.73;7.30;;;22.30;99.90;;;;;;4977746;28;20509;-84
2021/09/12 11:09:02;;;;;;;8.80;7.27;;;22.00;99.90;;;;;;4978175;28;20933;-82
2021/09/12 11:11:31;;;;;;;11.03;7.40;;;21.60;99.90;;;;;;4977526;28;20410;-82
2021/09/12 11:13:58;;;;;;;11.53;8.87;;;21.40;99.90;;;;;;4977155;28;20422;-82
2021/09/12 11:16:25;;;;;;;7.90;6.90;;;21.20;99.90;;;;;;4977706;28;20450;-85
2021/09/12 11:18:51;;;;;;;9.20;7.20;;;21.20;99.90;;;;;;4977842;28;20478;-82
2021/09/12 11:21:27;;;;;;;10.00;7.77;;;21.00;99.90;;;;;;4977519;28;20833;-81
2021/09/12 11:24:17;;;;;;;9.30;7.30;;;20.90;99.90;;;;;;4977448;28;20476;-82
2021/09/12 11:26:57;;;;;;;9.43;8.43;;;20.60;99.90;;;;;;4976720;28;21011;-82
2021/09/12 11:29:27;;;;;;;12.57;9.87;;;20.50;99.90;;;;;;4975193;28;20425;-84
2021/09/12 11:31:54;;;;;;;11.67;7.47;;;20.50;99.90;;;;;;4977200;28;20417;-82
2021/09/12 11:34:22;;;;;;;10.80;7.67;;;20.80;99.90;;;;;;4975704;28;20426;-81
2021/09/12 11:36:54;;;;;;;9.63;8.03;;;21.20;99.90;;;;;;4977145;28;20949;-82
2021/09/12 11:39:32;;;;;;;11.83;8.23;;;21.40;99.90;;;;;;4977022;28;20405;-81
2021/09/12 11:42:02;;;;;;;13.37;7.90;;;21.00;99.90;;;;;;4977026;28;20421;-82
2021/09/12 11:44:36;;;;;;;10.90;8.00;;;21.00;99.90;;;;;;4975741;28;20422;-84
2021/09/12 11:47:10;;;;;;;12.57;8.00;;;20.80;99.90;;;;;;4976849;28;20999;-82
2021/09/12 11:49:36;;;;;;;7.80;7.00;;;20.90;99.90;;;;;;4976975;28;20415;-83
2021/09/12 11:52:02;;;;;;;12.23;8.60;;;20.90;99.90;;;;;;4975580;28;20441;-82
2021/09/12 11:54:31;;;;;;;7.63;6.83;;;21.00;99.90;;;;;;4976856;28;20407;-82
2021/09/12 11:57:03;;;;;;;6.77;5.70;;;20.90;99.90;;;;;;4976722;28;20196;-82
2021/09/12 11:59:31;;;;;;;5.97;5.47;;;21.00;99.90;;;;;;4975656;28;20439;-81
2021/09/12 12:01:58;;;;;;;6.30;5.40;;;21.10;99.90;;;;;;4975423;28;20409;-83
2021/09/12 12:04:27;;;;;;;8.30;4.40;;;21.30;99.90;;;;;;4975104;28;20984;-83
2021/09/12 12:06:55;;;;;;;8.27;5.23;;;21.50;99.90;;;;;;4976369;28;20560;-83
2021/09/12 12:09:27;;;;;;;6.90;6.10;;;21.40;99.90;;;;;;4975292;28;20435;-82
2021/09/12 12:11:53;;;;;;;8.70;5.80;;;21.30;99.90;;;;;;4976307;28;20409;-82
2021/09/12 12:14:28;;;;;;;9.10;6.30;;;21.20;99.90;;;;;;4975522;28;20426;-81
2021/09/12 12:16:54;;;;;;;7.10;5.57;;;21.30;99.90;;;;;;4975573;28;20985;-82
2021/09/12 12:19:21;;;;;;;12.20;6.33;;;22.20;99.90;;;;;;4975942;28;20427;-83
2021/09/12 12:21:49;;;;;;;9.63;5.83;;;22.80;99.90;;;;;;4976019;28;20182;-82
2021/09/12 12:24:24;;;;;;;10.93;5.60;;;23.50;99.90;;;;;;4976162;28;21011;-81
2021/09/12 12:26:53;;;;;;;6.87;5.70;;;23.90;99.90;;;;;;4976230;28;20849;-82
2021/09/12 12:29:31;;;;;;;8.87;4.67;;;23.80;99.90;;;;;;4976230;28;20416;-84
2021/09/12 12:31:59;;;;;;;7.77;4.77;;;23.60;99.90;;;;;;4975831;28;20415;-83